sensor_id;sensor_type;location;lat;lon;timestamp;P1;durP1;ratioP1;P2;durP2;ratioP2
20896;SDS011;10608;42.600;23.398;2023-06-10T00:00:08;135.50;;;129.13;;
20896;SDS011;10608;42.600;23.398;2023-06-10T00:02:37;167.47;;;159.63;;
20896;SDS011;10608;42.600;23.398;2023-06-10T00:05:03;155.60;;;148.77;;
20896;SDS011;10608;42.600;23.398;2023-06-10T00:07:28;156.47;;;149.53;;
20896;SDS011;10608;42.600;23.398;2023-06-10T00:09:54;129.37;;;123.53;;
20896;SDS011;10608;42.600;23.398;2023-06-10T00:12:20;127.97;;;122.37;;
20896;SDS011;10608;42.600;23.398;2023-06-10T00:14:45;128.40;;;122.73;;
20896;SDS011;10608;42.600;23.398;2023-06-10T00:17:11;128.23;;;122.63;;
20896;SDS011;10608;42.600;23.398;2023-06-10T00:19:36;123.23;;;117.83;;
20896;SDS011;10608;42.600;23.398;2023-06-10T00:22:03;129.27;;;123.57;;
20896;SDS011;10608;42.600;23.398;2023-06-10T00:24:29;148.17;;;141.43;;
20896;SDS011;10608;42.600;23.398;2023-06-10T00:26:55;141.03;;;134.67;;
20896;SDS011;10608;42.600;23.398;2023-06-10T00:29:20;152.57;;;145.80;;
20896;SDS011;10608;42.600;23.398;2023-06-10T00:31:46;148.40;;;140.77;;
20896;SDS011;10608;42.600;23.398;2023-06-10T00:34:12;142.20;;;135.83;;
20896;SDS011;10608;42.600;23.398;2023-06-10T00:36:37;124.40;;;118.77;;
20896;SDS011;10608;42.600;23.398;2023-06-10T00:39:02;118.13;;;112.83;;
20896;SDS011;10608;42.600;23.398;2023-06-10T00:41:29;120.73;;;115.50;;
20896;SDS011;10608;42.600;23.398;2023-06-10T00:43:55;119.97;;;114.57;;
20896;SDS011;10608;42.600;23.398;2023-06-10T00:46:21;114.73;;;109.80;;
20896;SDS011;10608;42.600;23.398;2023-06-10T00:48:48;114.67;;;109.63;;
20896;SDS011;10608;42.600;23.398;2023-06-10T00:51:15;92.13;;;88.20;;
20896;SDS011;10608;42.600;23.398;2023-06-10T00:53:41;98.40;;;94.20;;
20896;SDS011;10608;42.600;23.398;2023-06-10T00:56:07;94.43;;;90.20;;
20896;SDS011;10608;42.600;23.398;2023-06-10T00:58:33;90.70;;;86.80;;
20896;SDS011;10608;42.600;23.398;2023-06-10T01:01:00;91.23;;;87.13;;
20896;SDS011;10608;42.600;23.398;2023-06-10T01:03:25;96.53;;;92.03;;
20896;SDS011;10608;42.600;23.398;2023-06-10T01:05:53;99.07;;;94.80;;
20896;SDS011;10608;42.600;23.398;2023-06-10T01:08:33;100.77;;;96.37;;
20896;SDS011;10608;42.600;23.398;2023-06-10T01:11:04;98.10;;;93.70;;
20896;SDS011;10608;42.600;23.398;2023-06-10T01:13:33;112.87;;;107.83;;
20896;SDS011;10608;42.600;23.398;2023-06-10T01:16:04;109.83;;;104.93;;
20896;SDS011;10608;42.600;23.398;2023-06-10T01:18:30;126.20;;;119.93;;
20896;SDS011;10608;42.600;23.398;2023-06-10T01:20:56;129.73;;;123.87;;
20896;SDS011;10608;42.600;23.398;2023-06-10T01:23:22;119.17;;;113.47;;
20896;SDS011;10608;42.600;23.398;2023-06-10T01:25:59;130.57;;;124.77;;
20896;SDS011;10608;42.600;23.398;2023-06-10T01:28:36;138.83;;;132.40;;
20896;SDS011;10608;42.600;23.398;2023-06-10T01:34:14;131.23;;;125.43;;
20896;SDS011;10608;42.600;23.398;2023-06-10T01:36:46;146.60;;;139.97;;
20896;SDS011;10608;42.600;23.398;2023-06-10T01:39:14;135.03;;;129.03;;
20896;SDS011;10608;42.600;23.398;2023-06-10T01:41:42;138.87;;;132.43;;
20896;SDS011;10608;42.600;23.398;2023-06-10T01:44:08;146.33;;;139.60;;
20896;SDS011;10608;42.600;23.398;2023-06-10T01:46:35;144.27;;;137.57;;
20896;SDS011;10608;42.600;23.398;2023-06-10T01:49:00;154.90;;;147.73;;
20896;SDS011;10608;42.600;23.398;2023-06-10T01:51:25;171.87;;;163.87;;
20896;SDS011;10608;42.600;23.398;2023-06-10T01:53:51;165.63;;;158.20;;
20896;SDS011;10608;42.600;23.398;2023-06-10T01:56:16;130.83;;;124.93;;
20896;SDS011;10608;42.600;23.398;2023-06-10T01:58:44;132.97;;;126.73;;
20896;SDS011;10608;42.600;23.398;2023-06-10T02:01:10;150.20;;;143.20;;
20896;SDS011;10608;42.600;23.398;2023-06-10T02:03:36;139.00;;;132.47;;
20896;SDS011;10608;42.600;23.398;2023-06-10T02:06:01;147.70;;;141.03;;
20896;SDS011;10608;42.600;23.398;2023-06-10T02:08:27;141.53;;;135.07;;
20896;SDS011;10608;42.600;23.398;2023-06-10T02:10:52;137.53;;;131.17;;
20896;SDS011;10608;42.600;23.398;2023-06-10T02:13:18;142.03;;;135.50;;
20896;SDS011;10608;42.600;23.398;2023-06-10T02:15:44;141.07;;;134.43;;
20896;SDS011;10608;42.600;23.398;2023-06-10T02:18:09;146.23;;;139.63;;
20896;SDS011;10608;42.600;23.398;2023-06-10T02:20:36;127.57;;;121.77;;
20896;SDS011;10608;42.600;23.398;2023-06-10T02:23:02;142.93;;;136.30;;
20896;SDS011;10608;42.600;23.398;2023-06-10T02:25:28;140.57;;;133.87;;
20896;SDS011;10608;42.600;23.398;2023-06-10T02:27:53;127.20;;;121.33;;
20896;SDS011;10608;42.600;23.398;2023-06-10T02:30:19;137.00;;;130.73;;
20896;SDS011;10608;42.600;23.398;2023-06-10T02:32:44;150.53;;;143.53;;
20896;SDS011;10608;42.600;23.398;2023-06-10T02:35:16;148.67;;;141.70;;
20896;SDS011;10608;42.600;23.398;2023-06-10T02:37:42;160.87;;;153.57;;
20896;SDS011;10608;42.600;23.398;2023-06-10T02:40:08;153.73;;;146.23;;
20896;SDS011;10608;42.600;23.398;2023-06-10T02:42:35;139.40;;;133.27;;
20896;SDS011;10608;42.600;23.398;2023-06-10T02:45:00;123.60;;;118.13;;
20896;SDS011;10608;42.600;23.398;2023-06-10T02:47:26;134.60;;;128.13;;
20896;SDS011;10608;42.600;23.398;2023-06-10T02:49:52;136.93;;;130.60;;
20896;SDS011;10608;42.600;23.398;2023-06-10T02:52:17;143.87;;;137.03;;
20896;SDS011;10608;42.600;23.398;2023-06-10T02:54:43;137.30;;;130.80;;
20896;SDS011;10608;42.600;23.398;2023-06-10T02:57:08;142.10;;;135.50;;
20896;SDS011;10608;42.600;23.398;2023-06-10T02:59:35;150.20;;;143.43;;
20896;SDS011;10608;42.600;23.398;2023-06-10T03:02:00;139.57;;;132.97;;
20896;SDS011;10608;42.600;23.398;2023-06-10T03:04:26;134.73;;;128.50;;
20896;SDS011;10608;42.600;23.398;2023-06-10T03:06:54;132.50;;;126.10;;
20896;SDS011;10608;42.600;23.398;2023-06-10T03:09:19;134.67;;;128.37;;
20896;SDS011;10608;42.600;23.398;2023-06-10T03:11:45;112.23;;;107.17;;
20896;SDS011;10608;42.600;23.398;2023-06-10T03:14:10;107.80;;;102.90;;
20896;SDS011;10608;42.600;23.398;2023-06-10T03:16:35;98.30;;;93.90;;
20896;SDS011;10608;42.600;23.398;2023-06-10T03:19:04;97.17;;;92.77;;
20896;SDS011;10608;42.600;23.398;2023-06-10T03:21:30;117.73;;;112.43;;
20896;SDS011;10608;42.600;23.398;2023-06-10T03:23:55;135.77;;;129.53;;
20896;SDS011;10608;42.600;23.398;2023-06-10T03:26:20;123.67;;;118.07;;
20896;SDS011;10608;42.600;23.398;2023-06-10T03:28:46;126.07;;;120.50;;
20896;SDS011;10608;42.600;23.398;2023-06-10T03:31:12;138.27;;;131.97;;
20896;SDS011;10608;42.600;23.398;2023-06-10T03:33:37;130.03;;;124.20;;
20896;SDS011;10608;42.600;23.398;2023-06-10T03:36:04;138.10;;;132.00;;
20896;SDS011;10608;42.600;23.398;2023-06-10T03:38:30;165.27;;;157.93;;
20896;SDS011;10608;42.600;23.398;2023-06-10T03:40:55;159.17;;;152.23;;
20896;SDS011;10608;42.600;23.398;2023-06-10T03:43:20;150.17;;;143.43;;
20896;SDS011;10608;42.600;23.398;2023-06-10T03:45:46;184.07;;;176.07;;
20896;SDS011;10608;42.600;23.398;2023-06-10T03:48:13;206.47;;;197.23;;
20896;SDS011;10608;42.600;23.398;2023-06-10T03:50:38;219.83;;;210.23;;
20896;SDS011;10608;42.600;23.398;2023-06-10T03:53:04;158.73;;;151.63;;
20896;SDS011;10608;42.600;23.398;2023-06-10T03:55:29;147.30;;;140.20;;
20896;SDS011;10608;42.600;23.398;2023-06-10T03:57:56;145.00;;;138.70;;
20896;SDS011;10608;42.600;23.398;2023-06-10T04:00:21;259.77;;;248.93;;
20896;SDS011;10608;42.600;23.398;2023-06-10T04:02:47;168.00;;;160.70;;
20896;SDS011;10608;42.600;23.398;2023-06-10T04:05:17;130.17;;;124.20;;
20896;SDS011;10608;42.600;23.398;2023-06-10T04:07:46;167.20;;;159.77;;
20896;SDS011;10608;42.600;23.398;2023-06-10T04:10:13;150.90;;;144.23;;
20896;SDS011;10608;42.600;23.398;2023-06-10T04:12:39;164.33;;;157.03;;
20896;SDS011;10608;42.600;23.398;2023-06-10T04:15:05;164.93;;;157.10;;
20896;SDS011;10608;42.600;23.398;2023-06-10T04:17:31;159.77;;;152.80;;
20896;SDS011;10608;42.600;23.398;2023-06-10T04:19:57;152.23;;;145.27;;
20896;SDS011;10608;42.600;23.398;2023-06-10T04:22:25;147.77;;;141.10;;
20896;SDS011;10608;42.600;23.398;2023-06-10T04:24:51;158.80;;;151.53;;
20896;SDS011;10608;42.600;23.398;2023-06-10T04:27:17;152.70;;;145.63;;
20896;SDS011;10608;42.600;23.398;2023-06-10T04:29:42;139.17;;;132.67;;
20896;SDS011;10608;42.600;23.398;2023-06-10T04:32:08;127.57;;;121.77;;
20896;SDS011;10608;42.600;23.398;2023-06-10T04:34:33;127.40;;;121.77;;
20896;SDS011;10608;42.600;23.398;2023-06-10T04:36:59;124.67;;;119.17;;
20896;SDS011;10608;42.600;23.398;2023-06-10T04:39:25;114.17;;;109.07;;
20896;SDS011;10608;42.600;23.398;2023-06-10T04:41:50;115.00;;;109.93;;
20896;SDS011;10608;42.600;23.398;2023-06-10T04:44:16;141.50;;;135.20;;
20896;SDS011;10608;42.600;23.398;2023-06-10T04:46:41;128.57;;;122.63;;
20896;SDS011;10608;42.600;23.398;2023-06-10T04:49:07;128.87;;;123.07;;
20896;SDS011;10608;42.600;23.398;2023-06-10T04:51:32;151.43;;;144.73;;
20896;SDS011;10608;42.600;23.398;2023-06-10T04:53:58;173.63;;;165.80;;
20896;SDS011;10608;42.600;23.398;2023-06-10T04:56:27;185.83;;;177.30;;
20896;SDS011;10608;42.600;23.398;2023-06-10T04:58:53;180.63;;;172.60;;
20896;SDS011;10608;42.600;23.398;2023-06-10T05:01:19;169.90;;;162.20;;
20896;SDS011;10608;42.600;23.398;2023-06-10T05:03:44;176.20;;;168.40;;
20896;SDS011;10608;42.600;23.398;2023-06-10T05:06:10;189.50;;;181.20;;
20896;SDS011;10608;42.600;23.398;2023-06-10T05:08:35;178.73;;;170.57;;
20896;SDS011;10608;42.600;23.398;2023-06-10T05:11:00;219.20;;;208.40;;
20896;SDS011;10608;42.600;23.398;2023-06-10T05:13:26;242.13;;;231.27;;
20896;SDS011;10608;42.600;23.398;2023-06-10T05:15:52;251.80;;;240.33;;
20896;SDS011;10608;42.600;23.398;2023-06-10T05:18:17;270.03;;;257.43;;
20896;SDS011;10608;42.600;23.398;2023-06-10T05:20:43;252.87;;;241.73;;
20896;SDS011;10608;42.600;23.398;2023-06-10T05:23:08;247.37;;;235.63;;
20896;SDS011;10608;42.600;23.398;2023-06-10T05:25:33;246.87;;;235.27;;
20896;SDS011;10608;42.600;23.398;2023-06-10T05:28:00;306.43;;;293.23;;
20896;SDS011;10608;42.600;23.398;2023-06-10T05:30:25;221.47;;;211.20;;
20896;SDS011;10608;42.600;23.398;2023-06-10T05:32:51;204.80;;;195.63;;
20896;SDS011;10608;42.600;23.398;2023-06-10T05:35:17;235.10;;;224.80;;
20896;SDS011;10608;42.600;23.398;2023-06-10T05:37:43;197.97;;;189.47;;
20896;SDS011;10608;42.600;23.398;2023-06-10T05:40:09;156.67;;;149.67;;
20896;SDS011;10608;42.600;23.398;2023-06-10T05:42:35;163.47;;;156.20;;
20896;SDS011;10608;42.600;23.398;2023-06-10T05:45:00;183.37;;;174.93;;
20896;SDS011;10608;42.600;23.398;2023-06-10T05:47:27;233.47;;;223.37;;
20896;SDS011;10608;42.600;23.398;2023-06-10T05:49:53;214.07;;;204.50;;
20896;SDS011;10608;42.600;23.398;2023-06-10T05:52:18;152.70;;;145.93;;
20896;SDS011;10608;42.600;23.398;2023-06-10T05:54:44;184.27;;;176.43;;
20896;SDS011;10608;42.600;23.398;2023-06-10T05:57:09;199.80;;;191.17;;
20896;SDS011;10608;42.600;23.398;2023-06-10T05:59:35;183.80;;;175.77;;
20896;SDS011;10608;42.600;23.398;2023-06-10T06:02:01;166.23;;;158.93;;
20896;SDS011;10608;42.600;23.398;2023-06-10T06:04:26;160.60;;;153.70;;
20896;SDS011;10608;42.600;23.398;2023-06-10T06:06:51;177.13;;;169.47;;
20896;SDS011;10608;42.600;23.398;2023-06-10T06:09:17;180.53;;;172.63;;
20896;SDS011;10608;42.600;23.398;2023-06-10T06:11:42;172.37;;;164.83;;
20896;SDS011;10608;42.600;23.398;2023-06-10T06:14:08;178.03;;;170.13;;
20896;SDS011;10608;42.600;23.398;2023-06-10T06:16:33;223.17;;;213.17;;
20896;SDS011;10608;42.600;23.398;2023-06-10T06:18:58;244.33;;;233.77;;
20896;SDS011;10608;42.600;23.398;2023-06-10T06:21:24;184.90;;;176.43;;
20896;SDS011;10608;42.600;23.398;2023-06-10T06:23:49;177.80;;;170.17;;
20896;SDS011;10608;42.600;23.398;2023-06-10T06:26:15;169.20;;;161.37;;
20896;SDS011;10608;42.600;23.398;2023-06-10T06:28:40;151.87;;;145.23;;
20896;SDS011;10608;42.600;23.398;2023-06-10T06:31:06;152.80;;;145.80;;
20896;SDS011;10608;42.600;23.398;2023-06-10T06:33:32;177.13;;;169.50;;
20896;SDS011;10608;42.600;23.398;2023-06-10T06:35:57;158.07;;;150.77;;
20896;SDS011;10608;42.600;23.398;2023-06-10T06:38:22;113.33;;;108.33;;
20896;SDS011;10608;42.600;23.398;2023-06-10T06:40:48;82.13;;;78.53;;
20896;SDS011;10608;42.600;23.398;2023-06-10T06:43:13;76.80;;;72.20;;
20896;SDS011;10608;42.600;23.398;2023-06-10T06:45:39;80.93;;;77.37;;
20896;SDS011;10608;42.600;23.398;2023-06-10T06:48:05;73.70;;;70.50;;
20896;SDS011;10608;42.600;23.398;2023-06-10T06:50:30;64.67;;;61.77;;
20896;SDS011;10608;42.600;23.398;2023-06-10T06:52:56;67.33;;;64.40;;
20896;SDS011;10608;42.600;23.398;2023-06-10T06:55:21;60.73;;;57.83;;
20896;SDS011;10608;42.600;23.398;2023-06-10T06:57:46;60.63;;;57.83;;
20896;SDS011;10608;42.600;23.398;2023-06-10T07:00:12;59.27;;;56.50;;
20896;SDS011;10608;42.600;23.398;2023-06-10T07:02:37;51.80;;;49.43;;
20896;SDS011;10608;42.600;23.398;2023-06-10T07:05:03;49.03;;;46.67;;
20896;SDS011;10608;42.600;23.398;2023-06-10T07:07:28;50.27;;;47.83;;
20896;SDS011;10608;42.600;23.398;2023-06-10T07:09:54;55.20;;;52.73;;
20896;SDS011;10608;42.600;23.398;2023-06-10T07:12:19;67.30;;;64.17;;
20896;SDS011;10608;42.600;23.398;2023-06-10T07:14:48;126.30;;;120.07;;
20896;SDS011;10608;42.600;23.398;2023-06-10T07:17:14;75.23;;;71.73;;
20896;SDS011;10608;42.600;23.398;2023-06-10T07:19:39;93.10;;;88.80;;
20896;SDS011;10608;42.600;23.398;2023-06-10T07:22:05;70.73;;;67.43;;
20896;SDS011;10608;42.600;23.398;2023-06-10T07:24:30;80.30;;;76.63;;
20896;SDS011;10608;42.600;23.398;2023-06-10T07:26:55;85.87;;;82.00;;
20896;SDS011;10608;42.600;23.398;2023-06-10T07:29:21;73.97;;;70.53;;
20896;SDS011;10608;42.600;23.398;2023-06-10T07:31:46;69.40;;;66.10;;
20896;SDS011;10608;42.600;23.398;2023-06-10T07:34:12;56.53;;;53.80;;
20896;SDS011;10608;42.600;23.398;2023-06-10T07:36:37;37.53;;;35.73;;
20896;SDS011;10608;42.600;23.398;2023-06-10T07:39:02;47.73;;;45.27;;
20896;SDS011;10608;42.600;23.398;2023-06-10T07:41:28;53.00;;;50.17;;
20896;SDS011;10608;42.600;23.398;2023-06-10T07:43:53;60.80;;;57.83;;
20896;SDS011;10608;42.600;23.398;2023-06-10T07:46:22;54.30;;;51.80;;
20896;SDS011;10608;42.600;23.398;2023-06-10T07:48:49;44.53;;;42.43;;
20896;SDS011;10608;42.600;23.398;2023-06-10T07:51:15;22.77;;;21.50;;
20896;SDS011;10608;42.600;23.398;2023-06-10T07:53:41;36.70;;;34.70;;
20896;SDS011;10608;42.600;23.398;2023-06-10T07:56:07;38.57;;;36.70;;
20896;SDS011;10608;42.600;23.398;2023-06-10T07:58:33;41.87;;;40.00;;
20896;SDS011;10608;42.600;23.398;2023-06-10T08:00:58;46.53;;;44.33;;
20896;SDS011;10608;42.600;23.398;2023-06-10T08:03:23;38.07;;;36.30;;
20896;SDS011;10608;42.600;23.398;2023-06-10T08:05:49;37.53;;;35.67;;
20896;SDS011;10608;42.600;23.398;2023-06-10T08:08:14;59.67;;;56.93;;
20896;SDS011;10608;42.600;23.398;2023-06-10T08:10:40;34.23;;;32.63;;
20896;SDS011;10608;42.600;23.398;2023-06-10T08:13:05;33.43;;;31.87;;
20896;SDS011;10608;42.600;23.398;2023-06-10T08:15:31;28.90;;;27.47;;
20896;SDS011;10608;42.600;23.398;2023-06-10T08:17:56;26.43;;;25.10;;
20896;SDS011;10608;42.600;23.398;2023-06-10T08:20:22;17.27;;;16.23;;
20896;SDS011;10608;42.600;23.398;2023-06-10T08:22:47;14.43;;;13.73;;
20896;SDS011;10608;42.600;23.398;2023-06-10T08:25:13;13.87;;;12.87;;
20896;SDS011;10608;42.600;23.398;2023-06-10T08:27:38;16.80;;;16.00;;
20896;SDS011;10608;42.600;23.398;2023-06-10T08:30:04;17.47;;;16.57;;
20896;SDS011;10608;42.600;23.398;2023-06-10T08:32:30;16.40;;;15.60;;
20896;SDS011;10608;42.600;23.398;2023-06-10T08:34:55;19.63;;;18.70;;
20896;SDS011;10608;42.600;23.398;2023-06-10T08:37:21;18.10;;;17.07;;
20896;SDS011;10608;42.600;23.398;2023-06-10T08:39:47;15.73;;;14.83;;
20896;SDS011;10608;42.600;23.398;2023-06-10T08:45:03;29.03;;;27.70;;
20896;SDS011;10608;42.600;23.398;2023-06-10T08:47:31;27.80;;;26.50;;
20896;SDS011;10608;42.600;23.398;2023-06-10T08:50:03;24.90;;;23.83;;
20896;SDS011;10608;42.600;23.398;2023-06-10T08:52:33;18.07;;;17.17;;
20896;SDS011;10608;42.600;23.398;2023-06-10T08:55:15;20.17;;;19.27;;
20896;SDS011;10608;42.600;23.398;2023-06-10T08:57:44;12.20;;;11.63;;
20896;SDS011;10608;42.600;23.398;2023-06-10T09:00:10;13.93;;;13.23;;
20896;SDS011;10608;42.600;23.398;2023-06-10T09:02:37;12.87;;;12.27;;
20896;SDS011;10608;42.600;23.398;2023-06-10T09:05:03;12.93;;;11.97;;
20896;SDS011;10608;42.600;23.398;2023-06-10T09:07:30;15.33;;;14.53;;
20896;SDS011;10608;42.600;23.398;2023-06-10T09:10:01;15.57;;;14.67;;
20896;SDS011;10608;42.600;23.398;2023-06-10T09:12:28;15.70;;;14.73;;
20896;SDS011;10608;42.600;23.398;2023-06-10T09:14:54;15.63;;;14.93;;
20896;SDS011;10608;42.600;23.398;2023-06-10T09:17:20;14.43;;;13.73;;
20896;SDS011;10608;42.600;23.398;2023-06-10T09:19:45;11.87;;;11.37;;
20896;SDS011;10608;42.600;23.398;2023-06-10T09:22:12;14.50;;;13.63;;
20896;SDS011;10608;42.600;23.398;2023-06-10T09:24:37;18.73;;;17.83;;
20896;SDS011;10608;42.600;23.398;2023-06-10T09:27:05;11.90;;;11.40;;
20896;SDS011;10608;42.600;23.398;2023-06-10T09:29:45;11.73;;;11.23;;
20896;SDS011;10608;42.600;23.398;2023-06-10T09:32:13;11.40;;;10.90;;
20896;SDS011;10608;42.600;23.398;2023-06-10T09:34:39;14.37;;;13.80;;
20896;SDS011;10608;42.600;23.398;2023-06-10T09:37:04;13.27;;;12.67;;
20896;SDS011;10608;42.600;23.398;2023-06-10T09:39:30;10.13;;;9.63;;
20896;SDS011;10608;42.600;23.398;2023-06-10T09:41:56;12.50;;;11.77;;
20896;SDS011;10608;42.600;23.398;2023-06-10T09:44:21;13.60;;;13.00;;
20896;SDS011;10608;42.600;23.398;2023-06-10T09:46:50;18.00;;;17.20;;
20896;SDS011;10608;42.600;23.398;2023-06-10T09:49:16;15.57;;;14.87;;
20896;SDS011;10608;42.600;23.398;2023-06-10T09:51:48;22.30;;;21.07;;
20896;SDS011;10608;42.600;23.398;2023-06-10T09:54:18;17.40;;;16.60;;
20896;SDS011;10608;42.600;23.398;2023-06-10T09:56:46;15.20;;;14.50;;
20896;SDS011;10608;42.600;23.398;2023-06-10T09:59:13;13.37;;;12.77;;
20896;SDS011;10608;42.600;23.398;2023-06-10T10:01:39;16.47;;;15.77;;
20896;SDS011;10608;42.600;23.398;2023-06-10T10:04:04;11.90;;;11.20;;
20896;SDS011;10608;42.600;23.398;2023-06-10T10:06:30;15.00;;;13.83;;
20896;SDS011;10608;42.600;23.398;2023-06-10T10:08:55;24.60;;;23.60;;
20896;SDS011;10608;42.600;23.398;2023-06-10T10:11:22;43.60;;;41.70;;
20896;SDS011;10608;42.600;23.398;2023-06-10T10:13:48;17.10;;;16.30;;
20896;SDS011;10608;42.600;23.398;2023-06-10T10:16:25;31.20;;;29.90;;
20896;SDS011;10608;42.600;23.398;2023-06-10T10:19:04;18.47;;;17.70;;
20896;SDS011;10608;42.600;23.398;2023-06-10T10:21:37;17.87;;;17.13;;
20896;SDS011;10608;42.600;23.398;2023-06-10T10:26:39;68.17;;;65.27;;
20896;SDS011;10608;42.600;23.398;2023-06-10T10:31:43;41.10;;;39.37;;
20896;SDS011;10608;42.600;23.398;2023-06-10T10:34:12;42.90;;;40.93;;
20896;SDS011;10608;42.600;23.398;2023-06-10T10:36:40;39.93;;;38.27;;
20896;SDS011;10608;42.600;23.398;2023-06-10T10:39:06;40.37;;;38.50;;
20896;SDS011;10608;42.600;23.398;2023-06-10T10:41:32;32.83;;;31.33;;
20896;SDS011;10608;42.600;23.398;2023-06-10T10:44:01;23.73;;;22.47;;
20896;SDS011;10608;42.600;23.398;2023-06-10T10:46:30;60.90;;;58.30;;
20896;SDS011;10608;42.600;23.398;2023-06-10T10:48:56;71.50;;;68.50;;
20896;SDS011;10608;42.600;23.398;2023-06-10T10:51:23;68.27;;;65.37;;
20896;SDS011;10608;42.600;23.398;2023-06-10T10:56:39;19.97;;;19.07;;
20896;SDS011;10608;42.600;23.398;2023-06-10T10:59:25;24.23;;;23.23;;
20896;SDS011;10608;42.600;23.398;2023-06-10T11:01:50;11.87;;;11.27;;
20896;SDS011;10608;42.600;23.398;2023-06-10T11:04:17;11.67;;;11.17;;
20896;SDS011;10608;42.600;23.398;2023-06-10T11:06:51;19.67;;;18.70;;
20896;SDS011;10608;42.600;23.398;2023-06-10T11:09:28;13.93;;;13.33;;
20896;SDS011;10608;42.600;23.398;2023-06-10T11:11:56;13.97;;;13.37;;
20896;SDS011;10608;42.600;23.398;2023-06-10T11:14:26;12.73;;;12.13;;
20896;SDS011;10608;42.600;23.398;2023-06-10T11:16:58;12.10;;;11.57;;
20896;SDS011;10608;42.600;23.398;2023-06-10T11:19:34;26.57;;;25.43;;
20896;SDS011;10608;42.600;23.398;2023-06-10T11:22:01;34.77;;;33.27;;
20896;SDS011;10608;42.600;23.398;2023-06-10T11:24:29;23.07;;;22.03;;
20896;SDS011;10608;42.600;23.398;2023-06-10T11:26:55;15.70;;;15.00;;
20896;SDS011;10608;42.600;23.398;2023-06-10T11:29:54;17.80;;;17.03;;
20896;SDS011;10608;42.600;23.398;2023-06-10T11:32:40;11.37;;;10.87;;
20896;SDS011;10608;42.600;23.398;2023-06-10T11:35:08;12.17;;;11.63;;
20896;SDS011;10608;42.600;23.398;2023-06-10T11:37:33;14.90;;;14.23;;
20896;SDS011;10608;42.600;23.398;2023-06-10T11:39:59;33.07;;;31.57;;
20896;SDS011;10608;42.600;23.398;2023-06-10T11:42:24;33.00;;;31.60;;
20896;SDS011;10608;42.600;23.398;2023-06-10T11:44:50;21.87;;;20.90;;
20896;SDS011;10608;42.600;23.398;2023-06-10T11:47:17;13.30;;;12.70;;
20896;SDS011;10608;42.600;23.398;2023-06-10T11:49:43;16.77;;;16.07;;
20896;SDS011;10608;42.600;23.398;2023-06-10T11:52:09;16.57;;;15.83;;
20896;SDS011;10608;42.600;23.398;2023-06-10T11:54:35;14.27;;;13.67;;
20896;SDS011;10608;42.600;23.398;2023-06-10T11:57:01;15.83;;;15.13;;
20896;SDS011;10608;42.600;23.398;2023-06-10T11:59:28;16.83;;;16.07;;
20896;SDS011;10608;42.600;23.398;2023-06-10T12:01:54;17.07;;;16.27;;
20896;SDS011;10608;42.600;23.398;2023-06-10T12:04:20;15.93;;;15.23;;
20896;SDS011;10608;42.600;23.398;2023-06-10T12:06:47;19.87;;;18.97;;
20896;SDS011;10608;42.600;23.398;2023-06-10T12:11:39;17.50;;;16.70;;
20896;SDS011;10608;42.600;23.398;2023-06-10T12:14:05;27.67;;;26.53;;
20896;SDS011;10608;42.600;23.398;2023-06-10T12:16:31;24.27;;;23.23;;
20896;SDS011;10608;42.600;23.398;2023-06-10T12:19:01;13.70;;;13.10;;
20896;SDS011;10608;42.600;23.398;2023-06-10T12:21:28;15.13;;;14.33;;
20896;SDS011;10608;42.600;23.398;2023-06-10T12:26:45;15.93;;;15.23;;
20896;SDS011;10608;42.600;23.398;2023-06-10T12:34:19;17.00;;;16.27;;
20896;SDS011;10608;42.600;23.398;2023-06-10T12:36:48;14.83;;;14.23;;
20896;SDS011;10608;42.600;23.398;2023-06-10T12:39:14;12.37;;;11.87;;
20896;SDS011;10608;42.600;23.398;2023-06-10T12:41:39;16.10;;;15.40;;
20896;SDS011;10608;42.600;23.398;2023-06-10T12:44:05;11.07;;;10.43;;
20896;SDS011;10608;42.600;23.398;2023-06-10T12:46:37;20.27;;;19.17;;
20896;SDS011;10608;42.600;23.398;2023-06-10T12:49:02;14.77;;;13.97;;
20896;SDS011;10608;42.600;23.398;2023-06-10T12:51:28;18.77;;;17.87;;
20896;SDS011;10608;42.600;23.398;2023-06-10T12:53:53;15.73;;;15.03;;
20896;SDS011;10608;42.600;23.398;2023-06-10T12:56:18;23.23;;;22.20;;
20896;SDS011;10608;42.600;23.398;2023-06-10T12:58:44;25.87;;;24.77;;
20896;SDS011;10608;42.600;23.398;2023-06-10T13:01:09;13.73;;;13.13;;
20896;SDS011;10608;42.600;23.398;2023-06-10T13:03:34;19.23;;;18.43;;
20896;SDS011;10608;42.600;23.398;2023-06-10T13:06:00;19.00;;;18.20;;
20896;SDS011;10608;42.600;23.398;2023-06-10T13:08:25;27.57;;;26.37;;
20896;SDS011;10608;42.600;23.398;2023-06-10T13:10:51;21.07;;;20.10;;
20896;SDS011;10608;42.600;23.398;2023-06-10T13:13:16;29.63;;;28.37;;
20896;SDS011;10608;42.600;23.398;2023-06-10T13:15:42;25.10;;;24.00;;
20896;SDS011;10608;42.600;23.398;2023-06-10T13:18:08;58.73;;;56.27;;
20896;SDS011;10608;42.600;23.398;2023-06-10T13:20:33;35.73;;;34.03;;
20896;SDS011;10608;42.600;23.398;2023-06-10T13:22:59;41.87;;;39.83;;
20896;SDS011;10608;42.600;23.398;2023-06-10T13:25:25;79.63;;;76.23;;
20896;SDS011;10608;42.600;23.398;2023-06-10T13:27:50;61.10;;;58.47;;
20896;SDS011;10608;42.600;23.398;2023-06-10T13:30:15;16.30;;;15.50;;
20896;SDS011;10608;42.600;23.398;2023-06-10T13:32:41;30.83;;;29.53;;
20896;SDS011;10608;42.600;23.398;2023-06-10T13:35:06;48.60;;;46.60;;
20896;SDS011;10608;42.600;23.398;2023-06-10T13:37:33;38.73;;;37.10;;
20896;SDS011;10608;42.600;23.398;2023-06-10T13:39:58;22.30;;;21.30;;
20896;SDS011;10608;42.600;23.398;2023-06-10T13:42:24;29.57;;;28.27;;
20896;SDS011;10608;42.600;23.398;2023-06-10T13:44:51;118.40;;;113.53;;
20896;SDS011;10608;42.600;23.398;2023-06-10T13:47:16;49.77;;;47.67;;
20896;SDS011;10608;42.600;23.398;2023-06-10T13:49:42;47.97;;;45.83;;
20896;SDS011;10608;42.600;23.398;2023-06-10T13:52:07;86.70;;;82.27;;
20896;SDS011;10608;42.600;23.398;2023-06-10T13:54:34;71.43;;;68.30;;
20896;SDS011;10608;42.600;23.398;2023-06-10T13:57:02;18.37;;;17.27;;
20896;SDS011;10608;42.600;23.398;2023-06-10T13:59:28;19.87;;;18.97;;
20896;SDS011;10608;42.600;23.398;2023-06-10T14:01:54;53.77;;;51.17;;
20896;SDS011;10608;42.600;23.398;2023-06-10T14:04:19;29.90;;;28.50;;
20896;SDS011;10608;42.600;23.398;2023-06-10T14:06:44;34.27;;;32.70;;
20896;SDS011;10608;42.600;23.398;2023-06-10T14:09:11;41.47;;;39.33;;
20896;SDS011;10608;42.600;23.398;2023-06-10T14:11:37;47.93;;;45.83;;
20896;SDS011;10608;42.600;23.398;2023-06-10T14:14:03;40.63;;;38.93;;
20896;SDS011;10608;42.600;23.398;2023-06-10T14:16:28;45.83;;;43.73;;
20896;SDS011;10608;42.600;23.398;2023-06-10T14:18:54;63.93;;;61.23;;